Detalii statie MIRACOM [00001CFF]

Toti senzorii

Date Temperatura solului [C]Precipitatii [mm]Voltaj baterie [mV]Leaf Wetness [Min]HC Air temperature [C]HC Relative humidity [%]Punctul de roua [C]
medieminmaxsumaultimatimpmedieminmaxmediemediemin
2019-10-19 22:00:00 14.8 14.5 15.1 0 6992 11.81 11.67 11.99 0 0 0
2019-10-19 23:00:00 14.5 14.3 14.8 0 7000 11.08 10.43 11.66 0 0 0
2019-10-20 00:00:00 14.3 14 14.6 0 6982 10.44 9.99 11.09 0 0 0
2019-10-20 01:00:00 14 13.8 14.3 0 6914 10.15 0 0 0
2019-10-20 02:00:00 13.8 13.6 14.1 0 6932 9.86 0 0 0
2019-10-20 03:00:00 13.5 13.4 13.9 0 6932 10.1 9.75 10.38 0 0 0
2019-10-20 04:00:00 13.4 13.3 13.5 0 6932 10.78 10.46 11.11 0 0 0
2019-10-20 05:00:00 13.3 13.3 13.4 0 6922 11.06 10.85 11.18 0 0 0
2019-10-20 06:00:00 13.3 13.2 13.4 0 6922 11.04 10.84 11.25 0 0 0
2019-10-20 07:00:00 13.2 13.2 13.4 0.2 6904 -44.24 11.68 0 0 0
2019-10-20 08:00:00 13.1 13.1 13.2 0 6962 11.97 11.73 12.12 0 0 0
2019-10-20 09:00:00 13.2 13.2 13.3 0 7070 12.44 12.03 12.82 0 0 0
2019-10-20 10:00:00 13.3 13.3 13.5 0 7176 14.11 0 0 0
2019-10-20 11:00:00 13.5 13.3 13.7 0 7274 5.21 15.24 0 0 0
2019-10-20 12:00:00 13.8 13.7 14.2 0 7342 17.07 15.54 18.58 0 0 0
2019-10-20 13:00:00 14.4 14.1 14.8 0 7342 22.16 18.37 24.59 0 0 0
2019-10-20 14:00:00 15 14.8 15.4 0 7332 25.49 24.84 25.92 33.43 5.9 -27.6
2019-10-20 15:00:00 15.8 15.5 16.3 0 7324 25.7 24.84 26.17 40.8 11.1 10.6
2019-10-20 16:00:00 16.4 16.3 16.6 0 7166 23.99 23.57 24.49 40.57 9.5 8.8
2019-10-20 17:00:00 16.6 16.6 16.8 0 7148 21.94 19.88 23.5 43.99 8.8 8.4
2019-10-20 18:00:00 16.6 16.5 16.8 0 7020 18.58 16.93 19.41 54.91 9.1 8.7
2019-10-20 19:00:00 16.4 16.2 16.5 0 7020 17.25 16.37 17.96 55.63 8.1 7.7
2019-10-20 20:00:00 16.1 16 16.3 0 7010 15.42 15 16.31 62.23 8.1 7.9
2019-10-20 21:00:00 15.8 15.8 16 0 7000 -14.5 15.01 53.41 0
2019-10-20 22:00:00 15.5 15.4 15.7 0 6952 12.37 14.67 1.6 0
2019-10-20 23:00:00 15.2 15.1 15.4 0 6982 -25.78 11.57 66.51 7.4 0
2019-10-21 00:00:00 14.9 14.5 15.2 0 6982 11.34 10.76 11.67 50.96 4.4 0
2019-10-21 01:00:00 14.7 14.6 15 0 6942 11.72 0 0 0
2019-10-21 02:00:00 14.4 14.2 14.7 0 6932 9.66 0 0 0
2019-10-21 03:00:00 14.1 13.9 14.3 0 6932 9.22 8.86 9.49 0 0 0
2019-10-21 04:00:00 14 13.8 14.2 0 6922 8.45 7.47 9.45 0 0 0
2019-10-21 05:00:00 13.7 13.6 13.9 0 6914 7.57 6.84 8.39 0 0 0
2019-10-21 06:00:00 13.4 13.2 13.6 0 6914 8.86 8.39 9.38 0 0 0
2019-10-21 07:00:00 13.2 13.1 13.4 0 6904 10.22 9.53 10.78 0 0 0
2019-10-21 08:00:00 13.1 13 13.3 0 6952 11.5 10.86 12.2 0 0 0
2019-10-21 09:00:00 13.1 12.9 13.3 0 7050 -15.19 13.45 0 0 0
2019-10-21 10:00:00 13.2 13.2 13.4 0 7158 13.9 13.52 14.33 0 0 0
2019-10-21 11:00:00 13.5 13.3 13.8 0 7206 -23.46 15.05 0 0 0
2019-10-21 12:00:00 13.7 13.5 13.8 0 7342 15.64 15.06 16.56 0 0 0
2019-10-21 13:00:00 14.1 13.8 14.3 0 7342 17.97 16.21 20.88 0 0 0
2019-10-21 14:00:00 14.7 14.4 15.1 0 7342 11.62 22.51 12.67 0.2 0
2019-10-21 15:00:00 15.4 15.1 15.8 0 7206 22.85 21.68 23.42 33.07 5.5 3.8
2019-10-21 16:00:00 16 15.8 16.2 0 7166 21.05 20.81 21.32 40.2 6.7 6.4
2019-10-21 17:00:00 16.2 16.1 16.3 0 7060 20.09 19.65 21.07 45.01 7.5 6.9
2019-10-21 18:00:00 16.1 16.1 16.3 0 7030 17.9 16.85 19.46 55.74 8.6 7.4